Time;durP1;ratioP1;P1;durP2;ratioP2;P2;SDS_P1;SDS_P2;PMS_P1;PMS_P2;Temp;Humidity;BMP_temperature;BMP_pressure;BME280_temperature;BME280_humidity;BME280_pressure;Samples;Min_cycle;Max_cycle;Signal;HPM_P1;HPM_P2
2021/11/05 00:02:29;;;;;;;;;7.50;4.00;;;;;16.94;100.00;101390.31;5056875;28;45514;-83
2021/11/05 00:04:55;;;;;;;;;4.50;3.00;;;;;17.08;100.00;101408.69;5064575;28;46056;-83
2021/11/05 00:07:21;;;;;;;;;3.00;3.00;;;;;17.05;100.00;101398.25;5032042;28;45664;-82
2021/11/05 00:09:47;;;;;;;;;4.00;2.00;;;;;17.11;100.00;101409.28;5053269;28;45474;-81
2021/11/05 00:12:12;;;;;;;;;3.00;2.50;;;;;17.15;100.00;101408.03;5039291;28;45814;-82
2021/11/05 00:14:38;;;;;;;;;9.75;4.00;;;;;17.29;100.00;101403.38;5048397;28;46195;-82
2021/11/05 00:17:04;;;;;;;;;4.75;3.00;;;;;17.36;100.00;101405.38;5052853;28;45829;-81
2021/11/05 00:19:29;;;;;;;;;4.00;3.00;;;;;17.24;100.00;101419.75;5054650;28;45516;-82
2021/11/05 00:21:55;;;;;;;;;3.00;3.00;;;;;17.41;100.00;101411.16;5060766;28;45748;-82
2021/11/05 00:24:21;;;;;;;;;2.75;2.75;;;;;17.43;100.00;101416.38;5056498;28;47692;-82
2021/11/05 00:26:46;;;;;;;;;7.00;3.00;;;;;17.44;100.00;101412.72;5037248;28;45511;-82
2021/11/05 00:29:12;;;;;;;;;5.00;3.00;;;;;17.39;100.00;101413.09;5055187;28;45462;-83
2021/11/05 00:31:37;;;;;;;;;2.25;2.00;;;;;17.40;100.00;101424.63;5057296;28;45566;-83
2021/11/05 00:34:02;;;;;;;;;4.50;3.25;;;;;17.33;100.00;101410.97;5038259;28;46926;-83
2021/11/05 00:36:28;;;;;;;;;8.00;3.00;;;;;17.42;100.00;101420.00;5061475;28;45489;-82
2021/11/05 00:38:53;;;;;;;;;4.00;3.00;;;;;17.33;100.00;101415.47;5059340;28;46058;-82
2021/11/05 00:41:19;;;;;;;;;2.00;2.00;;;;;17.27;100.00;101408.00;5046392;28;45302;-82
2021/11/05 00:43:44;;;;;;;;;3.75;2.00;;;;;17.25;100.00;101420.59;5051555;28;45396;-83
2021/11/05 00:46:10;;;;;;;;;8.50;3.75;;;;;17.13;100.00;101418.00;5060130;28;45351;-83
2021/11/05 00:48:35;;;;;;;;;5.00;3.00;;;;;16.99;100.00;101409.47;5060616;28;45342;-82
2021/11/05 00:51:01;;;;;;;;;6.50;3.00;;;;;17.02;100.00;101412.75;5055615;28;45434;-83
2021/11/05 00:53:27;;;;;;;;;3.25;3.00;;;;;17.03;100.00;101422.41;5048947;28;45447;-83
2021/11/05 00:55:53;;;;;;;;;4.00;4.00;;;;;17.14;100.00;101427.69;5040088;28;45625;-83
2021/11/05 00:58:18;;;;;;;;;2.25;2.25;;;;;17.16;100.00;101439.09;5051166;28;45467;-83
2021/11/05 01:00:44;;;;;;;;;4.25;3.75;;;;;17.19;100.00;101441.53;5054501;28;45577;-83
2021/11/05 01:03:10;;;;;;;;;3.50;3.50;;;;;17.14;100.00;101437.53;5034118;28;46983;-82
2021/11/05 01:05:36;;;;;;;;;6.50;4.75;;;;;17.23;100.00;101442.09;5036302;28;45545;-83
2021/11/05 01:08:02;;;;;;;;;5.00;3.00;;;;;17.20;100.00;101445.88;5058974;28;45295;-81
2021/11/05 01:10:28;;;;;;;;;5.00;5.00;;;;;17.11;100.00;101457.34;5058532;28;45440;-83
2021/11/05 01:12:54;;;;;;;;;9.25;4.25;;;;;16.94;100.00;101449.84;5048975;28;46275;-84
2021/11/05 01:15:19;;;;;;;;;4.00;4.00;;;;;17.02;100.00;101449.25;5051814;28;45901;-83
2021/11/05 01:17:45;;;;;;;;;2.00;2.00;;;;;16.89;100.00;101461.91;5048055;28;45490;-81
2021/11/05 01:20:14;;;;;;;;;13.00;4.00;;;;;17.09;100.00;101461.94;5053026;28;45339;-81
2021/11/05 01:22:41;;;;;;;;;5.00;4.00;;;;;16.84;100.00;101459.63;5037743;28;47389;-81
2021/11/05 01:25:06;;;;;;;;;7.50;3.00;;;;;16.87;100.00;101466.50;5054774;28;46320;-81
2021/11/05 01:27:32;;;;;;;;;9.00;3.00;;;;;16.93;100.00;101466.00;5028206;28;45436;-83
2021/11/05 01:29:59;;;;;;;;;3.75;3.00;;;;;16.96;100.00;101460.41;5041606;28;45525;-83
2021/11/05 01:32:25;;;;;;;;;5.50;3.00;;;;;16.92;100.00;101475.84;5059398;28;46354;-83
2021/11/05 01:34:51;;;;;;;;;3.50;3.00;;;;;16.91;100.00;101458.13;5058556;28;45782;-83
2021/11/05 01:37:17;;;;;;;;;5.00;3.50;;;;;16.95;100.00;101464.91;5059533;28;45457;-83
2021/11/05 01:39:42;;;;;;;;;4.25;3.25;;;;;16.87;100.00;101469.16;5059357;28;45315;-83
2021/11/05 01:42:08;;;;;;;;;3.00;2.00;;;;;16.82;100.00;101470.41;5059042;28;45398;-83
2021/11/05 01:44:34;;;;;;;;;3.25;3.00;;;;;16.93;100.00;101490.03;5061717;28;46321;-83
2021/11/05 01:47:00;;;;;;;;;2.75;2.75;;;;;16.98;100.00;101480.66;5048938;28;45679;-83
2021/11/05 01:49:25;;;;;;;;;4.50;3.00;;;;;16.99;100.00;101485.03;5034775;28;45805;-83
2021/11/05 01:51:52;;;;;;;;;9.00;3.75;;;;;17.00;100.00;101488.53;5057490;28;45435;-83
2021/11/05 01:54:18;;;;;;;;;2.00;2.00;;;;;17.05;100.00;101483.66;5058937;28;45502;-83
2021/11/05 01:56:44;;;;;;;;;4.25;4.25;;;;;17.09;100.00;101488.63;5057911;28;45352;-83
2021/11/05 01:59:23;;;;;;;;;7.50;4.00;;;;;17.20;100.00;101496.59;5034966;28;45630;-83
2021/11/05 02:01:49;;;;;;;;;7.75;2.50;;;;;17.21;100.00;101489.41;5047620;28;46117;-83
2021/11/05 02:04:14;;;;;;;;;6.00;3.00;;;;;17.26;100.00;101497.91;5051522;28;45572;-83
2021/11/05 02:06:44;;;;;;;;;6.00;3.00;;;;;17.48;100.00;101502.28;5048645;28;45391;-83
2021/11/05 02:09:13;;;;;;;;;6.50;3.50;;;;;17.27;100.00;101501.41;5059176;28;45328;-83
2021/11/05 02:11:38;;;;;;;;;8.25;4.25;;;;;17.18;100.00;101487.00;5033994;28;46996;-83
2021/11/05 02:14:05;;;;;;;;;4.75;3.75;;;;;17.20;100.00;101499.28;5057800;28;45392;-82
2021/11/05 02:16:31;;;;;;;;;4.75;4.00;;;;;17.20;100.00;101503.75;5049562;28;45498;-83
2021/11/05 02:18:57;;;;;;;;;4.75;3.00;;;;;17.23;100.00;101499.97;5048929;28;45299;-83
2021/11/05 02:21:34;;;;;;;;;9.75;4.00;;;;;17.15;100.00;101498.78;5059168;28;45529;-83
2021/11/05 02:23:59;;;;;;;;;9.75;3.00;;;;;17.03;100.00;101502.47;5046485;28;45482;-83
2021/11/05 02:26:25;;;;;;;;;2.50;2.50;;;;;16.83;100.00;101505.94;5051762;28;45432;-83
2021/11/05 02:28:50;;;;;;;;;4.50;3.75;;;;;16.99;100.00;101505.53;5048754;28;45355;-82
2021/11/05 02:31:16;;;;;;;;;3.50;3.00;;;;;17.00;100.00;101509.88;5045507;28;45509;-83
2021/11/05 02:33:41;;;;;;;;;5.50;3.50;;;;;17.31;100.00;101506.34;5044581;28;45381;-83
2021/11/05 02:36:07;;;;;;;;;5.25;3.25;;;;;17.48;100.00;101515.66;5055726;28;45414;-83
2021/11/05 02:38:32;;;;;;;;;4.75;3.25;;;;;17.45;100.00;101513.22;5053176;28;45456;-83
2021/11/05 02:40:57;;;;;;;;;7.00;3.00;;;;;17.50;100.00;101527.03;5040480;28;48330;-83
2021/11/05 02:43:23;;;;;;;;;4.00;4.00;;;;;17.53;100.00;101534.78;5036409;28;45250;-83
2021/11/05 02:45:50;;;;;;;;;4.75;3.00;;;;;17.47;100.00;101527.31;5054860;28;45803;-83
2021/11/05 02:48:17;;;;;;;;;5.25;2.75;;;;;17.39;100.00;101535.09;5052659;28;45577;-83
2021/11/05 02:50:42;;;;;;;;;6.50;3.25;;;;;17.08;100.00;101534.97;5059785;28;45496;-83
2021/11/05 02:53:08;;;;;;;;;3.25;1.00;;;;;16.95;100.00;101534.25;5062279;28;45538;-83
2021/11/05 02:55:33;;;;;;;;;5.50;3.75;;;;;16.88;100.00;101532.22;5061951;28;45654;-83
2021/11/05 02:58:00;;;;;;;;;4.50;2.75;;;;;16.76;100.00;101536.72;5037938;28;45487;-83
2021/11/05 03:00:26;;;;;;;;;5.25;3.00;;;;;16.88;100.00;101540.22;5047974;28;47264;-83
2021/11/05 03:02:51;;;;;;;;;8.50;3.00;;;;;16.87;100.00;101536.72;5056023;28;45361;-83
2021/11/05 03:05:17;;;;;;;;;2.00;2.00;;;;;16.93;100.00;101546.06;5062215;28;45554;-83
2021/11/05 03:07:42;;;;;;;;;2.00;2.00;;;;;16.89;100.00;101545.44;5051993;28;45300;-83
2021/11/05 03:10:13;;;;;;;;;7.50;4.00;;;;;16.95;100.00;101552.94;5051914;28;45526;-83
2021/11/05 03:12:39;;;;;;;;;9.00;3.75;;;;;16.90;100.00;101554.31;5038706;28;46124;-83
2021/11/05 03:15:05;;;;;;;;;5.00;2.25;;;;;16.88;100.00;101554.41;5057114;28;45442;-82
2021/11/05 03:17:31;;;;;;;;;4.25;2.75;;;;;16.95;100.00;101563.63;5032218;28;45510;-83
2021/11/05 03:19:57;;;;;;;;;4.75;3.00;;;;;17.15;100.00;101570.00;5050214;28;45416;-83
2021/11/05 03:22:23;;;;;;;;;4.00;3.00;;;;;17.17;100.00;101566.25;5057212;28;45331;-84
2021/11/05 03:24:48;;;;;;;;;3.00;2.00;;;;;17.07;100.00;101559.97;5053205;28;45237;-83
2021/11/05 03:27:14;;;;;;;;;4.75;3.00;;;;;16.87;100.00;101558.06;5039465;28;45230;-83
2021/11/05 03:29:39;;;;;;;;;7.00;3.00;;;;;16.78;100.00;101564.13;5049280;28;45445;-83
2021/11/05 03:32:05;;;;;;;;;2.25;2.25;;;;;16.80;100.00;101572.88;5051644;28;45470;-83
2021/11/05 03:34:31;;;;;;;;;4.75;4.00;;;;;16.78;100.00;101577.47;5055520;28;45351;-83
2021/11/05 03:36:56;;;;;;;;;2.25;2.25;;;;;16.83;100.00;101577.97;5064744;28;45581;-83
2021/11/05 03:39:22;;;;;;;;;2.25;2.25;;;;;17.23;100.00;101580.88;5057273;28;45776;-83
2021/11/05 03:41:47;;;;;;;;;5.25;2.00;;;;;17.25;100.00;101584.28;5043548;28;45555;-83
2021/11/05 03:44:13;;;;;;;;;7.25;3.00;;;;;17.43;100.00;101584.59;5060027;28;45477;-83
2021/11/05 03:46:39;;;;;;;;;2.75;2.75;;;;;17.35;100.00;101590.56;5061472;28;45408;-83
2021/11/05 03:49:06;;;;;;;;;4.00;3.00;;;;;17.43;100.00;101593.44;5043561;28;48301;-83
2021/11/05 03:51:31;;;;;;;;;4.00;2.75;;;;;17.23;100.00;101604.91;5058738;28;45373;-83
2021/11/05 03:53:57;;;;;;;;;3.75;2.50;;;;;17.19;100.00;101606.16;5033015;28;45533;-83
2021/11/05 03:56:22;;;;;;;;;2.00;2.00;;;;;17.11;100.00;101601.44;5062021;28;45434;-83
2021/11/05 03:58:48;;;;;;;;;1.25;1.25;;;;;17.01;100.00;101603.16;5030390;28;47149;-83
2021/11/05 04:01:13;;;;;;;;;3.00;3.00;;;;;17.20;100.00;101608.72;5051265;28;45242;-83
2021/11/05 04:03:39;;;;;;;;;2.00;2.00;;;;;17.21;100.00;101612.19;5047983;28;45328;-83
2021/11/05 04:06:05;;;;;;;;;5.50;1.00;;;;;17.16;100.00;101603.72;5042917;28;45416;-83
2021/11/05 04:08:30;;;;;;;;;5.25;2.00;;;;;17.15;100.00;101610.88;5055190;28;45427;-83
2021/11/05 04:10:57;;;;;;;;;5.50;3.00;;;;;17.17;100.00;101632.13;5062076;28;45442;-83
2021/11/05 04:13:22;;;;;;;;;2.00;1.75;;;;;17.08;100.00;101625.69;5060934;28;45616;-83
2021/11/05 04:15:48;;;;;;;;;9.50;2.00;;;;;17.12;100.00;101628.94;5059159;28;45510;-83
2021/11/05 04:18:14;;;;;;;;;3.25;2.00;;;;;17.15;100.00;101645.59;5046906;28;46122;-82
2021/11/05 04:20:40;;;;;;;;;3.50;2.50;;;;;17.23;100.00;101636.09;5059105;28;45735;-82
2021/11/05 04:23:06;;;;;;;;;8.50;3.00;;;;;17.14;100.00;101654.56;5039952;28;45484;-82
2021/11/05 04:25:34;;;;;;;;;5.00;2.00;;;;;17.19;100.00;101655.06;5058657;28;45448;-81
2021/11/05 04:28:00;;;;;;;;;4.00;2.00;;;;;17.26;100.00;101646.53;5054329;28;45784;-82
2021/11/05 04:30:25;;;;;;;;;3.50;2.25;;;;;17.14;100.00;101657.22;5054754;28;45387;-82
2021/11/05 04:32:51;;;;;;;;;2.00;2.00;;;;;17.05;100.00;101665.13;5039434;28;45459;-82
2021/11/05 04:35:16;;;;;;;;;2.00;1.00;;;;;16.91;100.00;101647.56;5061303;28;45423;-82
2021/11/05 04:37:41;;;;;;;;;1.00;1.00;;;;;16.98;100.00;101659.44;5059214;28;46141;-82
2021/11/05 04:40:08;;;;;;;;;8.75;2.50;;;;;17.21;100.00;101677.09;5050013;28;45428;-81
2021/11/05 04:42:33;;;;;;;;;1.00;1.00;;;;;17.19;100.00;101668.41;5054825;28;46695;-81
2021/11/05 04:44:58;;;;;;;;;4.00;1.00;;;;;17.26;100.00;101683.91;5059651;28;45524;-82
2021/11/05 04:47:24;;;;;;;;;3.50;2.00;;;;;17.28;100.00;101690.84;5054245;28;46232;-82
2021/11/05 04:49:49;;;;;;;;;5.75;2.00;;;;;17.26;100.00;101690.09;5062908;28;45403;-81
2021/11/05 04:52:15;;;;;;;;;4.00;2.00;;;;;17.12;100.00;101688.53;5072311;28;46131;-81
2021/11/05 04:54:40;;;;;;;;;4.50;2.00;;;;;17.01;100.00;101691.22;5067936;28;44910;-80
2021/11/05 04:57:08;;;;;;;;;2.00;1.50;;;;;17.01;100.00;101688.56;5071829;28;45325;-81
2021/11/05 04:59:34;;;;;;;;;2.00;2.00;;;;;16.96;100.00;101695.22;5068820;28;45307;-82
2021/11/05 05:01:59;;;;;;;;;4.00;2.00;;;;;17.00;100.00;101702.88;5079371;28;44957;-82
2021/11/05 05:04:25;;;;;;;;;6.25;1.50;;;;;16.98;100.00;101695.94;5060769;28;45412;-82
2021/11/05 05:06:50;;;;;;;;;3.25;1.25;;;;;16.95;100.00;101693.50;5046316;28;45542;-81
2021/11/05 05:09:15;;;;;;;;;6.50;2.00;;;;;16.99;100.00;101700.31;5057752;28;45715;-81
2021/11/05 05:11:45;;;;;;;;;4.75;2.00;;;;;17.00;100.00;101710.03;5056222;28;45925;-82
2021/11/05 05:14:11;;;;;;;;;2.50;1.00;;;;;17.01;100.00;101709.06;5055915;28;45340;-82
2021/11/05 05:16:37;;;;;;;;;4.75;2.00;;;;;17.03;100.00;101715.94;5049942;28;45772;-82
2021/11/05 05:19:02;;;;;;;;;4.50;2.00;;;;;17.01;100.00;101714.38;5026136;28;45441;-82
2021/11/05 05:21:28;;;;;;;;;3.00;1.00;;;;;16.97;100.00;101715.59;5041994;28;45458;-82
2021/11/05 05:23:53;;;;;;;;;1.50;1.00;;;;;16.94;100.00;101711.31;5055019;28;45502;-82
2021/11/05 05:26:19;;;;;;;;;3.50;1.00;;;;;16.93;100.00;101708.81;5058427;28;45412;-82
2021/11/05 05:28:44;;;;;;;;;2.25;2.00;;;;;16.97;100.00;101716.44;5036477;28;45486;-82
2021/11/05 05:31:09;;;;;;;;;4.25;2.00;;;;;16.96;100.00;101713.88;5055874;28;45390;-82
2021/11/05 05:33:36;;;;;;;;;1.00;1.00;;;;;16.95;100.00;101715.69;5054830;28;46666;-82
2021/11/05 05:36:04;;;;;;;;;2.00;1.25;;;;;16.93;100.00;101722.16;5054679;28;45510;-82
2021/11/05 05:38:30;;;;;;;;;2.00;2.00;;;;;16.89;100.00;101713.53;5060624;28;45438;-82
2021/11/05 05:40:56;;;;;;;;;1.25;1.25;;;;;16.98;100.00;101720.81;5056844;28;45433;-82
2021/11/05 05:43:21;;;;;;;;;3.25;2.00;;;;;17.04;100.00;101733.66;5037477;28;45202;-82
2021/11/05 05:45:47;;;;;;;;;2.25;2.25;;;;;16.97;100.00;101726.25;5036765;28;47278;-82
2021/11/05 05:48:12;;;;;;;;;2.50;1.25;;;;;16.98;100.00;101734.16;5059705;28;45464;-82
2021/11/05 05:50:38;;;;;;;;;2.00;2.00;;;;;16.99;100.00;101746.53;5057588;28;45577;-82
2021/11/05 05:53:03;;;;;;;;;3.50;2.00;;;;;17.01;100.00;101749.94;5034090;28;45619;-82
2021/11/05 05:55:29;;;;;;;;;3.00;1.00;;;;;17.02;100.00;101742.78;5056479;28;46075;-82
2021/11/05 05:57:54;;;;;;;;;3.25;2.00;;;;;17.08;100.00;101750.28;5056729;28;45650;-82
2021/11/05 06:00:20;;;;;;;;;2.50;2.00;;;;;17.07;100.00;101752.09;5048485;28;45355;-82
2021/11/05 06:02:46;;;;;;;;;2.25;2.25;;;;;17.13;100.00;101762.28;5043731;28;45428;-82
2021/11/05 06:05:12;;;;;;;;;1.75;1.00;;;;;17.08;100.00;101755.63;5048377;28;45563;-82
2021/11/05 06:07:38;;;;;;;;;2.00;2.00;;;;;17.00;100.00;101766.06;5054429;28;45768;-82
2021/11/05 06:10:05;;;;;;;;;1.00;1.00;;;;;16.99;100.00;101767.88;5035478;28;45442;-82
2021/11/05 06:12:32;;;;;;;;;3.00;1.00;;;;;17.02;100.00;101775.66;5040617;28;45533;-82
2021/11/05 06:14:57;;;;;;;;;2.50;2.00;;;;;16.93;100.00;101778.19;5036712;28;46499;-81
2021/11/05 06:17:23;;;;;;;;;3.75;1.00;;;;;17.08;100.00;101777.81;5037425;28;45286;-82
2021/11/05 06:19:49;;;;;;;;;3.50;2.00;;;;;17.15;100.00;101779.03;5051862;28;45549;-82
2021/11/05 06:22:14;;;;;;;;;3.00;2.00;;;;;17.15;100.00;101784.38;5039671;28;45508;-82
2021/11/05 06:24:40;;;;;;;;;6.00;2.25;;;;;17.29;100.00;101777.13;5050112;28;46760;-82
2021/11/05 06:27:05;;;;;;;;;3.50;2.00;;;;;17.24;100.00;101787.28;5054525;28;45574;-82
2021/11/05 06:29:31;;;;;;;;;2.00;2.00;;;;;17.26;100.00;101788.88;5041188;28;45556;-82
2021/11/05 06:31:56;;;;;;;;;2.75;1.25;;;;;17.13;100.00;101802.31;5054857;28;45399;-82
2021/11/05 06:34:22;;;;;;;;;3.00;3.00;;;;;17.40;100.00;101811.78;5061722;28;46125;-83
2021/11/05 06:36:47;;;;;;;;;3.00;1.00;;;;;17.12;100.00;101815.78;5062359;28;45359;-82
2021/11/05 06:39:13;;;;;;;;;2.00;1.50;;;;;17.25;100.00;101808.53;5057788;28;45474;-83
2021/11/05 06:41:38;;;;;;;;;2.25;1.75;;;;;17.29;100.00;101815.34;5065375;28;45481;-83
2021/11/05 06:44:04;;;;;;;;;7.75;2.75;;;;;17.37;100.00;101814.72;5066092;28;45991;-82
2021/11/05 06:46:30;;;;;;;;;6.50;2.25;;;;;17.37;100.00;101818.25;5063760;28;45424;-83
2021/11/05 06:48:55;;;;;;;;;2.00;2.00;;;;;17.27;100.00;101821.75;5060053;28;45383;-82
2021/11/05 06:51:21;;;;;;;;;1.50;1.00;;;;;17.24;100.00;101824.66;5033692;28;45443;-82
2021/11/05 06:53:48;;;;;;;;;3.00;3.00;;;;;17.25;100.00;101842.38;5055412;28;45427;-83
2021/11/05 06:56:14;;;;;;;;;4.00;2.50;;;;;17.23;100.00;101833.63;5054630;28;45376;-83
2021/11/05 06:58:48;;;;;;;;;6.25;2.25;;;;;17.31;100.00;101844.56;5061230;28;45362;-83
2021/11/05 07:01:43;;;;;;;;;4.75;3.00;;;;;17.43;100.00;101859.63;5054714;28;45556;-84
2021/11/05 07:04:11;;;;;;;;;4.50;2.00;;;;;17.28;100.00;101852.84;5055892;28;45750;-84
2021/11/05 07:06:44;;;;;;;;;3.00;3.00;;;;;17.34;100.00;101868.34;5058468;28;45402;-83
2021/11/05 07:09:17;;;;;;;;;4.50;2.00;;;;;17.33;100.00;101855.97;5061835;28;45717;-84
2021/11/05 07:12:22;;;;;;;;;;;;;;;;;;;;;
2021/11/05 07:15:10;;;;;;;;;5.00;2.25;;;;;17.55;100.00;101872.88;5054609;28;74432;-84
2021/11/05 07:17:36;;;;;;;;;5.00;1.75;;;;;17.45;100.00;101873.72;5022330;28;45810;-83
2021/11/05 07:20:03;;;;;;;;;2.00;1.00;;;;;17.52;100.00;101885.63;5063289;28;45510;-81
2021/11/05 07:22:29;;;;;;;;;2.00;2.00;;;;;17.50;100.00;101884.88;5044768;28;45530;-81
2021/11/05 07:24:54;;;;;;;;;2.00;2.00;;;;;17.56;100.00;101892.44;5056126;28;45514;-82
2021/11/05 07:27:20;;;;;;;;;3.75;1.50;;;;;17.54;100.00;101887.19;5060942;28;45390;-82
2021/11/05 07:29:46;;;;;;;;;4.00;2.00;;;;;17.64;100.00;101902.53;5042789;28;45485;-83
2021/11/05 07:32:12;;;;;;;;;2.75;2.75;;;;;17.55;100.00;101893.41;5060680;28;45618;-82
2021/11/05 07:34:38;;;;;;;;;5.00;2.00;;;;;17.64;100.00;101905.22;5061696;28;45323;-82
2021/11/05 07:37:14;;;;;;;;;3.00;3.00;;;;;17.63;100.00;101914.19;5060178;28;45630;-82
2021/11/05 07:39:40;;;;;;;;;4.75;2.00;;;;;17.46;100.00;101915.47;5060582;28;45470;-81
2021/11/05 07:42:06;;;;;;;;;3.00;2.00;;;;;17.43;100.00;101919.22;5043398;28;45544;-82
2021/11/05 07:44:31;;;;;;;;;4.00;3.00;;;;;17.49;100.00;101923.22;5061360;28;45341;-83
2021/11/05 07:46:57;;;;;;;;;4.00;2.50;;;;;17.63;100.00;101923.06;5062252;28;45430;-82
2021/11/05 07:49:22;;;;;;;;;3.50;2.00;;;;;17.63;100.00;101920.38;5061250;28;45391;-82
2021/11/05 07:51:48;;;;;;;;;3.50;2.50;;;;;17.64;100.00;101923.91;5061674;28;45435;-82
2021/11/05 07:54:13;;;;;;;;;3.00;2.75;;;;;17.70;100.00;101926.94;5061522;28;45339;-82
2021/11/05 07:56:39;;;;;;;;;3.75;1.25;;;;;17.77;100.00;101936.16;5060757;28;45402;-82
2021/11/05 07:59:06;;;;;;;;;1.00;1.00;;;;;17.98;100.00;101948.81;5032904;28;45748;-82
2021/11/05 08:01:32;;;;;;;;;6.00;4.00;;;;;18.07;100.00;101956.09;5028741;28;45368;-82
2021/11/05 08:03:58;;;;;;;;;4.75;3.00;;;;;18.22;100.00;101957.53;5054427;28;46360;-82
2021/11/05 08:06:24;;;;;;;;;3.00;2.50;;;;;18.36;100.00;101959.97;5042052;28;45328;-82
2021/11/05 08:08:49;;;;;;;;;5.00;2.50;;;;;18.40;100.00;101960.53;5045143;28;45589;-82
2021/11/05 08:11:16;;;;;;;;;7.25;2.75;;;;;18.48;100.00;101960.78;5042140;28;45465;-83
2021/11/05 08:13:42;;;;;;;;;4.00;2.00;;;;;18.54;100.00;101969.16;5053939;28;46167;-81
2021/11/05 08:16:09;;;;;;;;;3.50;2.00;;;;;18.52;100.00;101978.28;5057716;28;45373;-81
2021/11/05 08:18:35;;;;;;;;;3.75;3.75;;;;;18.64;100.00;101986.19;5032959;28;45391;-81
2021/11/05 08:21:00;;;;;;;;;11.00;5.00;;;;;18.50;100.00;101974.88;5039946;28;45506;-81
2021/11/05 08:23:26;;;;;;;;;6.75;4.50;;;;;18.46;100.00;101976.09;5045343;28;46037;-81
2021/11/05 08:25:51;;;;;;;;;3.25;3.25;;;;;18.37;100.00;101984.88;5044417;28;45431;-81
2021/11/05 08:28:18;;;;;;;;;5.00;3.00;;;;;18.41;100.00;101986.31;5055360;28;45520;-81
2021/11/05 08:30:45;;;;;;;;;4.00;2.25;;;;;18.51;100.00;101981.91;5050628;28;45574;-82
2021/11/05 08:33:11;;;;;;;;;4.50;3.50;;;;;18.59;100.00;101990.19;5058653;28;45486;-82
2021/11/05 08:35:38;;;;;;;;;4.00;4.00;;;;;18.71;98.25;101991.03;5059296;28;45457;-82
2021/11/05 08:38:07;;;;;;;;;3.00;1.25;;;;;18.82;100.00;102002.56;5061412;28;45529;-82
2021/11/05 08:40:32;;;;;;;;;9.50;3.25;;;;;18.85;98.39;102009.47;5041247;28;45743;-82
2021/11/05 08:42:58;;;;;;;;;9.00;4.00;;;;;18.61;97.62;102001.63;5057287;28;45302;-82
2021/11/05 08:45:24;;;;;;;;;5.00;3.00;;;;;18.61;98.45;102004.31;5055026;28;45320;-82
2021/11/05 08:47:49;;;;;;;;;4.25;3.00;;;;;18.75;98.98;101997.84;5058337;28;45676;-82
2021/11/05 08:50:23;;;;;;;;;5.50;4.00;;;;;18.87;96.84;102005.69;5056931;28;45541;-82
2021/11/05 08:52:50;;;;;;;;;3.00;3.00;;;;;18.90;97.42;102021.53;5037717;28;47973;-82
2021/11/05 08:55:16;;;;;;;;;8.50;3.25;;;;;18.92;97.00;102032.09;5056117;28;45482;-82
2021/11/05 08:57:41;;;;;;;;;4.75;3.00;;;;;18.89;96.54;102027.84;5056381;28;45471;-80
2021/11/05 09:00:11;;;;;;;;;9.00;3.75;;;;;18.99;96.58;102034.16;5034168;28;46015;-80
2021/11/05 09:02:38;;;;;;;;;5.00;4.00;;;;;18.93;96.74;102031.13;5045181;28;45411;-80
2021/11/05 09:05:04;;;;;;;;;6.00;3.75;;;;;18.91;98.36;102038.44;5054593;28;45961;-81
2021/11/05 09:07:29;;;;;;;;;3.75;2.50;;;;;18.94;97.86;102043.50;5058231;28;45448;-81
2021/11/05 09:09:55;;;;;;;;;3.00;3.00;;;;;19.04;97.64;102031.06;5039384;28;45926;-81
2021/11/05 09:12:21;;;;;;;;;6.00;4.75;;;;;19.17;96.20;102038.94;5031448;28;46930;-81
2021/11/05 09:14:46;;;;;;;;;6.00;3.75;;;;;19.20;98.20;102044.91;5049325;28;45428;-81
2021/11/05 09:17:12;;;;;;;;;5.50;3.00;;;;;19.47;97.77;102055.16;5046961;28;45373;-81
2021/11/05 09:19:37;;;;;;;;;3.75;3.00;;;;;19.51;97.14;102059.28;5042504;28;45488;-81
2021/11/05 09:22:03;;;;;;;;;11.50;5.00;;;;;19.59;97.18;102061.31;5043509;28;45406;-81
2021/11/05 09:24:29;;;;;;;;;9.75;4.00;;;;;19.68;96.40;102060.53;5033862;28;45498;-81
2021/11/05 09:26:54;;;;;;;;;7.25;5.00;;;;;19.76;95.92;102066.94;5043168;28;45518;-81
2021/11/05 09:29:20;;;;;;;;;5.25;4.00;;;;;19.77;92.04;102060.59;5032430;28;45755;-81
2021/11/05 09:31:45;;;;;;;;;6.00;5.00;;;;;19.81;92.27;102063.88;5055693;28;45790;-82
2021/11/05 09:34:11;;;;;;;;;8.25;4.00;;;;;19.75;91.65;102067.09;5057794;28;45328;-82
2021/11/05 09:36:36;;;;;;;;;6.50;4.00;;;;;19.67;92.94;102070.41;5056857;28;45228;-82
2021/11/05 09:39:04;;;;;;;;;7.00;3.25;;;;;19.67;92.85;102081.13;5053644;28;45405;-83
2021/11/05 09:41:29;;;;;;;;;3.75;3.00;;;;;19.76;94.11;102076.81;5040107;28;46699;-82
2021/11/05 09:43:55;;;;;;;;;8.00;5.00;;;;;20.17;91.55;102084.84;5057874;28;45524;-82
2021/11/05 09:46:20;;;;;;;;;9.75;4.00;;;;;20.50;93.89;102082.88;5039291;28;45870;-82
2021/11/05 09:48:48;;;;;;;;;5.75;4.00;;;;;21.17;93.88;102076.84;5055970;28;45473;-83
2021/11/05 09:51:13;;;;;;;;;4.25;4.25;;;;;21.67;92.46;102087.50;5054757;28;45597;-82
2021/11/05 09:53:39;;;;;;;;;2.75;2.75;;;;;22.28;86.87;102090.66;5056436;28;45543;-82
2021/11/05 09:56:18;;;;;;;;;4.50;3.00;;;;;22.61;85.98;102087.38;5060161;28;45502;-82
2021/11/05 09:58:43;;;;;;;;;5.25;3.75;;;;;22.90;83.24;102086.44;5057364;28;45454;-83
2021/11/05 10:01:10;;;;;;;;;4.75;3.50;;;;;23.00;84.56;102093.44;5058634;28;45216;-82
2021/11/05 10:03:36;;;;;;;;;5.00;3.50;;;;;23.05;82.50;102092.97;5055088;28;45292;-83
2021/11/05 10:06:06;;;;;;;;;3.75;3.50;;;;;23.24;80.80;102092.84;5058722;28;45509;-83
2021/11/05 10:08:35;;;;;;;;;6.00;5.00;;;;;23.25;81.40;102099.94;5053109;28;45549;-83
2021/11/05 10:11:24;;;;;;;;;5.00;4.00;;;;;23.44;80.72;102107.88;5058931;28;45525;-83
2021/11/05 10:13:51;;;;;;;;;4.00;4.00;;;;;23.56;78.84;102119.31;5039505;28;45515;-83
2021/11/05 10:16:19;;;;;;;;;5.50;3.00;;;;;23.47;78.97;102120.22;5033722;28;45432;-82
2021/11/05 10:19:15;;;;;;;;;3.00;2.75;;;;;23.41;75.88;102112.72;5055841;28;45423;-82
2021/11/05 10:21:44;;;;;;;;;6.00;5.25;;;;;23.15;79.33;102109.94;5023616;28;48262;-82
2021/11/05 10:24:15;;;;;;;;;7.75;6.25;;;;;23.05;79.02;102117.22;5055298;28;45356;-83
2021/11/05 10:26:41;;;;;;;;;5.25;3.50;;;;;23.06;79.09;102116.25;5056873;28;45435;-81
2021/11/05 10:29:10;;;;;;;;;5.75;4.00;;;;;23.06;77.10;102117.09;5053217;28;44799;-81
2021/11/05 10:31:36;;;;;;;;;7.00;4.00;;;;;23.01;75.46;102119.41;5056023;28;47733;-82
2021/11/05 10:34:03;;;;;;;;;5.00;3.75;;;;;23.09;77.79;102122.19;5042203;28;45500;-81
2021/11/05 10:36:31;;;;;;;;;6.50;4.00;;;;;23.19;75.18;102121.28;5041600;28;45387;-81
2021/11/05 10:39:03;;;;;;;;;4.00;4.00;;;;;23.18;77.30;102123.13;5035094;28;45819;-81
2021/11/05 10:41:30;;;;;;;;;8.00;5.75;;;;;23.06;74.00;102133.25;5049722;28;45382;-81
2021/11/05 10:43:57;;;;;;;;;10.00;6.00;;;;;23.05;75.07;102134.25;5052983;28;45485;-81
2021/11/05 10:46:35;;;;;;;;;7.75;5.00;;;;;22.97;74.83;102142.25;5055803;28;45452;-82
2021/11/05 10:49:21;;;;;;;;;6.75;4.00;;;;;22.80;72.67;102134.97;5056671;28;45429;-82
2021/11/05 10:51:47;;;;;;;;;5.00;5.00;;;;;22.36;71.30;102142.75;5055799;28;46342;-82
2021/11/05 10:54:12;;;;;;;;;5.00;4.50;;;;;22.27;72.20;102132.88;5034384;28;45487;-82
2021/11/05 10:56:39;;;;;;;;;5.50;4.00;;;;;22.07;74.62;102151.88;5044950;28;45594;-82
2021/11/05 10:59:08;;;;;;;;;6.00;5.00;;;;;21.93;75.75;102137.88;5051446;28;45406;-82
2021/11/05 11:01:44;;;;;;;;;6.00;5.00;;;;;21.81;74.80;102140.84;5056209;28;45449;-81
2021/11/05 11:04:12;;;;;;;;;7.00;5.00;;;;;21.87;75.42;102137.56;5054768;28;45288;-83
2021/11/05 11:06:46;;;;;;;;;3.75;3.00;;;;;21.88;76.43;102134.75;5033599;28;45357;-81
2021/11/05 11:09:18;;;;;;;;;4.75;3.75;;;;;21.92;76.97;102144.22;5055149;28;45388;-81
2021/11/05 11:12:03;;;;;;;;;6.00;3.75;;;;;21.96;77.00;102137.56;5061866;28;45628;-81
2021/11/05 11:14:31;;;;;;;;;4.25;2.50;;;;;21.92;75.58;102127.25;5055513;28;45481;-82
2021/11/05 11:16:56;;;;;;;;;3.25;3.25;;;;;22.06;75.00;102142.09;5056037;28;45375;-83
2021/11/05 11:19:24;;;;;;;;;4.50;3.25;;;;;22.12;75.22;102134.34;5059320;28;45928;-82